createdAt,value
2018-06-22T00:02:11.338Z,77.70
2018-06-22T00:04:41.872Z,83.20
2018-06-22T00:07:12.484Z,80.90
2018-06-22T00:09:43.323Z,78.60
2018-06-22T00:12:13.901Z,81.60
2018-06-22T00:14:44.484Z,80.20
2018-06-22T00:17:15.119Z,83.20
2018-06-22T00:19:45.650Z,80.10
2018-06-22T00:22:16.094Z,78.40
2018-06-22T00:24:46.709Z,81.50
2018-06-22T00:27:17.136Z,79.30
2018-06-22T00:29:47.614Z,75.60
2018-06-22T00:32:18.176Z,76.90
2018-06-22T00:34:49.471Z,81.30
2018-06-22T00:37:26.773Z,79.40
2018-06-22T00:39:57.269Z,80.40
2018-06-22T00:42:27.852Z,81.40
2018-06-22T00:44:58.345Z,81.10
2018-06-22T00:47:28.934Z,80.00
2018-06-22T00:49:59.563Z,79.70
2018-06-22T00:52:30.685Z,78.00
2018-06-22T00:55:01.161Z,82.50
2018-06-22T00:57:31.621Z,81.10
2018-06-22T01:00:02.202Z,80.40
2018-06-22T01:02:32.625Z,86.10
2018-06-22T01:05:03.311Z,81.50
2018-06-22T01:07:34.000Z,88.30
2018-06-22T01:10:04.720Z,82.90
2018-06-22T01:12:35.150Z,82.90
2018-06-22T01:15:05.806Z,86.50
2018-06-22T01:20:06.497Z,87.90
2018-06-22T01:22:36.905Z,84.80
2018-06-22T01:25:07.311Z,86.40
2018-06-22T01:27:37.813Z,89.40
2018-06-22T01:30:08.559Z,83.90
2018-06-22T01:32:39.746Z,88.40
2018-06-22T01:35:10.432Z,85.80
2018-06-22T01:37:41.177Z,86.10
2018-06-22T01:42:42.077Z,82.70
2018-06-22T01:45:12.888Z,90.80
2018-06-22T01:47:43.354Z,86.70
2018-06-22T01:50:14.122Z,83.10
2018-06-22T01:52:44.782Z,84.10
2018-06-22T01:55:15.580Z,82.90
2018-06-22T01:57:46.069Z,88.10
2018-06-22T02:00:17.618Z,86.00
2018-06-22T02:02:48.215Z,84.70
2018-06-22T02:05:18.824Z,86.50
2018-06-22T02:07:49.408Z,90.20
2018-06-22T02:10:20.089Z,88.50
2018-06-22T02:12:51.270Z,87.90
2018-06-22T02:15:22.093Z,86.00
2018-06-22T02:17:52.571Z,86.60
2018-06-22T02:20:23.161Z,86.50
2018-06-22T02:22:53.785Z,89.20
2018-06-22T02:25:24.477Z,90.30
2018-06-22T02:27:55.048Z,87.90
2018-06-22T02:30:25.635Z,89.20
2018-06-22T02:32:56.516Z,88.60
2018-06-22T02:35:27.065Z,90.20
2018-06-22T02:37:57.660Z,90.30
2018-06-22T02:42:58.212Z,85.80
2018-06-22T02:45:28.675Z,86.10
2018-06-22T02:47:59.140Z,87.00
2018-06-22T02:50:30.141Z,87.60
2018-06-22T02:53:00.854Z,85.80
2018-06-22T02:55:31.579Z,86.30
2018-06-22T03:00:32.345Z,86.70
2018-06-22T03:03:02.937Z,87.10
2018-06-22T03:05:33.418Z,88.20
2018-06-22T03:08:04.184Z,90.00
2018-06-22T03:10:35.003Z,89.60
2018-06-22T03:13:05.612Z,90.80
2018-06-22T03:15:36.321Z,89.80
2018-06-22T03:18:06.963Z,89.10
2018-06-22T03:20:37.388Z,88.10
2018-06-22T03:28:08.240Z,86.60
2018-06-22T03:30:38.977Z,86.40
2018-06-22T03:33:09.588Z,86.80
2018-06-22T03:35:40.144Z,85.30
2018-06-22T03:38:10.746Z,87.30
2018-06-22T03:40:41.339Z,86.50
2018-06-22T03:43:12.131Z,85.50
2018-06-22T03:45:42.880Z,84.70
2018-06-22T03:48:13.389Z,84.60
2018-06-22T03:50:44.384Z,86.00
2018-06-22T03:53:14.974Z,86.60
2018-06-22T03:55:45.653Z,87.10
2018-06-22T03:58:16.355Z,87.40
2018-06-22T04:03:17.260Z,85.80
2018-06-22T04:05:47.917Z,86.70
2018-06-22T04:08:18.512Z,89.70
2018-06-22T04:10:49.218Z,89.50
2018-06-22T04:13:19.969Z,88.60
2018-06-22T04:15:50.605Z,86.70
2018-06-22T04:18:21.186Z,86.90
2018-06-22T04:20:51.923Z,84.50
2018-06-22T04:25:52.976Z,86.80
2018-06-22T04:28:23.695Z,86.90
2018-06-22T04:30:54.369Z,86.10
2018-06-22T04:33:25.000Z,84.60
2018-06-22T04:35:55.491Z,86.30
2018-06-22T04:38:26.346Z,84.10
2018-06-22T04:40:56.969Z,83.50
2018-06-22T04:43:27.696Z,83.60
2018-06-22T04:45:59.043Z,82.90
2018-06-22T04:48:30.370Z,84.50
2018-06-22T04:51:01.092Z,82.10
2018-06-22T04:53:31.883Z,81.10
2018-06-22T04:56:02.529Z,81.60
2018-06-22T04:58:33.093Z,80.80
2018-06-22T05:01:03.682Z,81.60
2018-06-22T05:03:34.909Z,81.70
2018-06-22T05:06:05.673Z,81.40
2018-06-22T05:08:36.408Z,83.00
2018-06-22T05:11:07.096Z,81.60
2018-06-22T05:13:37.782Z,75.20
2018-06-22T05:16:08.513Z,73.20
2018-06-22T05:18:39.024Z,69.70
2018-06-22T05:21:09.588Z,68.20
2018-06-22T05:23:40.208Z,64.00
2018-06-22T05:26:10.732Z,59.70
2018-06-22T05:28:44.236Z,56.90
2018-06-22T05:31:14.846Z,54.00
2018-06-22T05:33:46.004Z,52.80
2018-06-22T05:36:16.822Z,50.60
2018-06-22T05:38:47.340Z,48.70
2018-06-22T05:41:18.060Z,46.30
2018-06-22T05:43:48.671Z,46.50
2018-06-22T05:46:19.358Z,43.80
2018-06-22T05:48:49.972Z,43.50
2018-06-22T05:53:50.820Z,42.70
2018-06-22T05:58:52.465Z,40.30
2018-06-22T06:01:23.901Z,42.10
2018-06-22T06:03:55.097Z,43.90
2018-06-22T06:06:25.834Z,42.80
2018-06-22T06:08:56.633Z,44.00
2018-06-22T06:11:27.280Z,42.40
2018-06-22T06:13:57.816Z,42.50
2018-06-22T06:16:28.373Z,46.70
2018-06-22T06:18:58.972Z,48.20
2018-06-22T06:21:29.761Z,50.00
2018-06-22T06:24:00.376Z,52.60
2018-06-22T06:26:31.660Z,55.60
2018-06-22T06:29:02.383Z,56.90
2018-06-22T06:31:33.056Z,56.80
2018-06-22T06:34:03.937Z,57.30
2018-06-22T06:36:34.587Z,55.70
2018-06-22T06:39:07.345Z,57.30
2018-06-22T06:41:37.967Z,55.30
2018-06-22T06:44:08.495Z,56.20
2018-06-22T06:46:39.760Z,56.70
2018-06-22T06:49:10.504Z,56.50
2018-06-22T06:51:40.977Z,54.80
2018-06-22T06:54:11.455Z,57.10
2018-06-22T06:56:42.051Z,57.00
2018-06-22T06:59:13.010Z,56.80
2018-06-22T07:01:43.509Z,57.00
2018-06-22T07:06:44.471Z,58.40
2018-06-22T07:09:15.833Z,58.80
2018-06-22T07:11:46.539Z,60.60
2018-06-22T07:14:17.478Z,61.50
2018-06-22T07:16:48.255Z,62.90
2018-06-22T07:19:18.973Z,64.00
2018-06-22T07:21:56.438Z,62.20
2018-06-22T07:24:27.001Z,60.80
2018-06-22T07:26:57.628Z,62.30
2018-06-22T07:29:28.735Z,61.80
2018-06-22T07:31:59.256Z,64.00
2018-06-22T07:34:30.040Z,64.90
2018-06-22T07:39:30.922Z,64.50
2018-06-22T07:42:01.788Z,64.80
2018-06-22T07:44:32.348Z,63.90
2018-06-22T07:49:33.224Z,61.50
2018-06-22T07:52:03.865Z,63.20
2018-06-22T07:54:34.795Z,63.80
2018-06-22T07:57:05.493Z,64.70
2018-06-22T08:02:06.578Z,66.00
2018-06-22T08:04:37.302Z,65.00
2018-06-22T08:07:07.848Z,64.80
2018-06-22T08:09:38.684Z,64.70
2018-06-22T08:12:09.301Z,65.90
2018-06-22T08:14:39.982Z,65.60
2018-06-22T08:17:10.668Z,65.30
2018-06-22T08:19:41.404Z,65.70
2018-06-22T08:22:11.927Z,62.10
2018-06-22T08:24:42.461Z,58.50
2018-06-22T08:27:13.065Z,56.60
2018-06-22T08:29:43.611Z,58.00
2018-06-22T08:32:14.178Z,57.70
2018-06-22T08:34:44.738Z,57.30
2018-06-22T08:37:15.273Z,58.30
2018-06-22T08:39:45.893Z,59.90
2018-06-22T08:42:19.516Z,59.60
2018-06-22T08:44:50.082Z,61.10
2018-06-22T08:47:20.668Z,61.50
2018-06-22T08:49:51.126Z,61.80
2018-06-22T08:52:28.441Z,62.60
2018-06-22T08:54:58.926Z,60.40
2018-06-22T08:57:29.462Z,57.40
2018-06-22T09:02:30.266Z,50.80
2018-06-22T09:05:00.732Z,50.60
2018-06-22T09:07:31.724Z,50.30
2018-06-22T09:10:02.532Z,50.50
2018-06-22T09:15:03.422Z,53.30
2018-06-22T09:17:34.145Z,52.70
2018-06-22T09:20:04.867Z,55.40
2018-06-22T09:22:35.409Z,56.90
2018-06-22T09:25:06.335Z,53.70
2018-06-22T09:27:36.936Z,54.20
2018-06-22T09:30:07.694Z,55.40
2018-06-22T09:32:38.192Z,56.10
2018-06-22T09:35:10.075Z,57.20
2018-06-22T09:37:40.750Z,57.00
2018-06-22T09:40:11.639Z,56.40
2018-06-22T09:42:42.259Z,53.90
2018-06-22T09:45:12.983Z,52.00
2018-06-22T09:47:43.425Z,50.40
2018-06-22T09:55:14.383Z,43.20
2018-06-22T09:57:44.881Z,43.40
2018-06-22T10:00:18.277Z,46.50
2018-06-22T10:02:49.532Z,48.50
2018-06-22T10:05:20.372Z,50.80
2018-06-22T10:07:50.891Z,49.60
2018-06-22T10:10:21.520Z,48.90
2018-06-22T10:12:52.132Z,49.30
2018-06-22T10:15:22.843Z,50.80
2018-06-22T10:17:53.498Z,51.80
2018-06-22T10:20:24.220Z,53.20
2018-06-22T10:22:54.962Z,53.00
2018-06-22T10:25:25.468Z,54.80
2018-06-22T10:27:56.241Z,54.30
2018-06-22T10:30:26.956Z,56.40
2018-06-22T10:32:57.698Z,53.70
2018-06-22T10:35:28.596Z,54.60
2018-06-22T10:40:29.329Z,56.80
2018-06-22T10:42:59.990Z,58.30
2018-06-22T10:45:31.060Z,59.60
2018-06-22T10:48:01.881Z,59.80
2018-06-22T10:50:32.701Z,60.00
2018-06-22T10:55:33.543Z,58.20
2018-06-22T10:58:04.141Z,57.90
2018-06-22T11:00:35.476Z,57.80
2018-06-22T11:03:06.370Z,57.90
2018-06-22T11:05:37.009Z,59.50
2018-06-22T11:08:07.662Z,57.90
2018-06-22T11:10:38.499Z,58.50
2018-06-22T11:13:09.246Z,59.30
2018-06-22T11:15:39.751Z,59.90
2018-06-22T11:18:10.498Z,60.80
2018-06-22T11:20:41.190Z,60.90
2018-06-22T11:23:12.061Z,62.20
2018-06-22T11:25:43.268Z,61.80
2018-06-22T11:28:13.906Z,57.90
2018-06-22T11:30:44.802Z,57.60
2018-06-22T11:33:16.369Z,56.10
2018-06-22T11:35:47.125Z,56.30
2018-06-22T11:38:18.148Z,55.40
2018-06-22T11:40:48.873Z,54.40
2018-06-22T11:43:19.556Z,55.50
2018-06-22T11:45:50.268Z,55.80
2018-06-22T11:48:21.086Z,54.70
2018-06-22T11:50:51.705Z,54.60
2018-06-22T11:53:22.348Z,55.00
2018-06-22T11:55:53.067Z,55.20
2018-06-22T11:58:23.578Z,56.10
2018-06-22T12:00:54.216Z,55.90
2018-06-22T12:03:25.097Z,55.10
2018-06-22T12:05:56.040Z,54.80
2018-06-22T12:08:26.692Z,56.50
2018-06-22T12:10:57.612Z,56.00
2018-06-22T12:13:28.188Z,55.10
2018-06-22T12:15:58.828Z,55.30
2018-06-22T12:18:29.561Z,56.20
2018-06-22T12:21:00.238Z,55.70
2018-06-22T12:23:30.865Z,55.90
2018-06-22T12:26:01.717Z,55.00
2018-06-22T12:31:02.662Z,54.60
2018-06-22T12:33:34.027Z,54.40
2018-06-22T12:36:05.868Z,54.90
2018-06-22T12:38:36.410Z,55.40
2018-06-22T12:41:07.678Z,53.50
2018-06-22T12:43:38.397Z,54.30
2018-06-22T12:46:09.065Z,52.10
2018-06-22T12:48:39.574Z,52.70
2018-06-22T12:51:10.496Z,53.10
2018-06-22T12:53:41.615Z,55.10
2018-06-22T12:56:12.390Z,53.90
2018-06-22T12:58:42.972Z,54.70
2018-06-22T13:01:13.758Z,53.90
2018-06-22T13:06:14.796Z,51.80
2018-06-22T13:08:45.639Z,51.50
2018-06-22T13:11:16.229Z,52.70
2018-06-22T13:13:46.787Z,53.90
2018-06-22T13:16:17.347Z,52.50
2018-06-22T13:18:47.992Z,51.80
2018-06-22T13:21:18.756Z,52.10
2018-06-22T13:23:49.429Z,50.80
2018-06-22T13:26:20.478Z,51.60
2018-06-22T13:28:51.539Z,52.50
2018-06-22T13:31:22.161Z,52.10
2018-06-22T13:33:52.939Z,51.80
2018-06-22T13:36:23.483Z,50.80
2018-06-22T13:38:54.783Z,50.70
2018-06-22T13:41:25.418Z,51.80
2018-06-22T13:43:56.034Z,53.00
2018-06-22T13:48:56.885Z,53.80
2018-06-22T13:51:27.435Z,51.70
2018-06-22T13:53:58.152Z,52.80
2018-06-22T13:56:28.805Z,52.50
2018-06-22T13:58:59.424Z,54.20
2018-06-22T14:01:30.477Z,54.70
2018-06-22T14:04:06.312Z,54.80
2018-06-22T14:06:42.121Z,53.60
2018-06-22T14:09:14.381Z,53.60
2018-06-22T14:11:45.084Z,54.30
2018-06-22T14:14:15.660Z,54.00
2018-06-22T14:16:46.250Z,55.00
2018-06-22T14:19:16.873Z,55.20
2018-06-22T14:21:47.578Z,55.30
2018-06-22T14:24:18.100Z,52.60
2018-06-22T14:26:48.745Z,54.70
2018-06-22T14:29:19.470Z,54.30
2018-06-22T14:31:50.270Z,54.20
2018-06-22T14:34:20.882Z,52.60
2018-06-22T14:36:51.584Z,53.60
2018-06-22T14:39:22.325Z,53.60
2018-06-22T14:41:53.079Z,53.80
2018-06-22T14:44:23.681Z,53.80
2018-06-22T14:46:54.258Z,53.40
2018-06-22T14:49:25.057Z,52.70
2018-06-22T14:52:01.529Z,52.90
2018-06-22T14:54:37.635Z,53.40
2018-06-22T14:57:13.365Z,52.30
2018-06-22T14:59:49.448Z,52.90
2018-06-22T15:02:25.256Z,53.40
2018-06-22T15:05:00.999Z,53.30
2018-06-22T15:07:36.846Z,52.50
2018-06-22T15:10:07.638Z,53.10
2018-06-22T15:12:38.410Z,53.80
2018-06-22T15:15:08.895Z,53.80
2018-06-22T15:17:45.202Z,54.80
2018-06-22T15:20:15.807Z,53.60
2018-06-22T15:22:46.510Z,54.70
2018-06-22T15:25:17.365Z,54.20
2018-06-22T15:27:48.126Z,55.50
2018-06-22T15:30:18.954Z,54.90
2018-06-22T15:32:49.740Z,54.10
2018-06-22T15:36:26.308Z,55.00
2018-06-22T15:39:02.124Z,53.40
2018-06-22T15:41:38.215Z,53.80
2018-06-22T15:44:14.074Z,53.60
2018-06-22T15:46:49.878Z,53.90
2018-06-22T15:49:25.629Z,54.10
2018-06-22T15:52:01.750Z,55.30
2018-06-22T15:54:37.488Z,55.70
2018-06-22T15:57:08.071Z,56.10
2018-06-22T15:59:38.717Z,55.10
2018-06-22T16:02:14.521Z,56.80
2018-06-22T16:04:46.066Z,54.60
2018-06-22T16:07:16.697Z,54.10
2018-06-22T16:09:52.550Z,54.00
2018-06-22T16:12:28.738Z,54.20
2018-06-22T16:15:04.633Z,55.70
2018-06-22T16:17:40.615Z,55.90
2018-06-22T16:20:16.564Z,56.20
2018-06-22T16:22:52.383Z,57.40
2018-06-22T16:25:28.222Z,56.30
2018-06-22T16:28:03.913Z,57.00
2018-06-22T16:33:05.094Z,57.20
2018-06-22T16:35:35.835Z,57.40
2018-06-22T16:38:06.542Z,56.80
2018-06-22T16:40:37.313Z,56.30
2018-06-22T16:43:07.920Z,56.30
2018-06-22T16:45:38.609Z,55.70
2018-06-22T16:48:09.317Z,56.10
2018-06-22T16:50:40.093Z,55.80
2018-06-22T16:53:10.712Z,55.40
2018-06-22T16:55:41.411Z,55.60
2018-06-22T16:58:17.031Z,56.30
2018-06-22T17:00:47.659Z,55.40
2018-06-22T17:03:18.276Z,55.80
2018-06-22T17:05:48.883Z,56.80
2018-06-22T17:08:24.612Z,56.80
2018-06-22T17:11:00.649Z,57.20
2018-06-22T17:13:36.857Z,57.10
2018-06-22T17:16:12.817Z,57.50
2018-06-22T17:18:48.753Z,56.10
2018-06-22T17:21:19.752Z,57.10
2018-06-22T17:23:50.412Z,56.60
2018-06-22T17:26:20.999Z,57.10
2018-06-22T17:28:51.693Z,56.40
2018-06-22T17:31:22.295Z,57.10
2018-06-22T17:33:53.093Z,57.80
2018-06-22T17:36:23.895Z,57.20
2018-06-22T17:38:54.650Z,58.30
2018-06-22T17:41:26.005Z,58.00
2018-06-22T17:43:56.789Z,58.10
2018-06-22T17:46:27.497Z,58.10
2018-06-22T17:48:58.280Z,57.90
2018-06-22T17:51:29.212Z,58.10
2018-06-22T17:54:00.344Z,59.50
2018-06-22T17:56:31.032Z,59.30
2018-06-22T17:59:07.015Z,59.10
2018-06-22T18:01:42.733Z,59.40
2018-06-22T18:04:18.598Z,58.70
2018-06-22T18:06:54.351Z,59.00
2018-06-22T18:09:30.518Z,59.80
2018-06-22T18:12:06.370Z,59.50
2018-06-22T18:14:36.885Z,60.50
2018-06-22T18:17:07.567Z,60.80
2018-06-22T18:19:38.248Z,61.20
2018-06-22T18:22:09.154Z,61.10
2018-06-22T18:24:39.847Z,61.80
2018-06-22T18:27:10.416Z,62.20
2018-06-22T18:29:41.202Z,62.40
2018-06-22T18:32:12.402Z,63.60
2018-06-22T18:34:43.090Z,64.00
2018-06-22T18:37:13.695Z,64.10
2018-06-22T18:39:44.501Z,63.40
2018-06-22T18:42:15.318Z,64.80
2018-06-22T18:44:45.949Z,66.30
2018-06-22T18:47:16.642Z,67.70
2018-06-22T18:52:22.693Z,72.50
2018-06-22T18:54:58.543Z,71.20
2018-06-22T18:57:34.409Z,69.30
2018-06-22T19:00:10.531Z,70.60
2018-06-22T19:02:46.520Z,74.80
2018-06-22T19:05:17.087Z,74.90
2018-06-22T19:07:47.854Z,75.70
2018-06-22T19:10:18.578Z,77.00
2018-06-22T19:12:49.272Z,75.20
2018-06-22T19:17:50.658Z,76.80
2018-06-22T19:20:21.310Z,78.10
2018-06-22T19:22:52.029Z,79.50
2018-06-22T19:25:22.765Z,80.60
2018-06-22T19:27:53.377Z,82.20
2018-06-22T19:30:23.869Z,83.00
2018-06-22T19:32:54.594Z,83.30
2018-06-22T19:35:25.462Z,85.50
2018-06-22T19:37:56.111Z,86.20
2018-06-22T19:42:56.816Z,88.00
2018-06-22T19:45:32.565Z,88.60
2018-06-22T19:48:08.490Z,86.60
2018-06-22T19:50:44.110Z,88.60
2018-06-22T19:53:21.172Z,90.10
2018-06-22T19:55:51.758Z,88.80
2018-06-22T20:00:52.492Z,90.80
2018-06-22T20:03:23.246Z,89.20
2018-06-22T20:05:53.889Z,89.30
2018-06-22T20:08:24.625Z,88.60
2018-06-22T20:10:55.339Z,90.00
2018-06-22T20:13:26.059Z,90.50
2018-06-22T20:15:56.901Z,91.60
2018-06-22T20:18:27.500Z,92.40
2018-06-22T20:20:58.292Z,90.90
2018-06-22T20:23:29.094Z,90.10
2018-06-22T20:25:59.633Z,92.80
2018-06-22T20:28:30.172Z,91.10
2018-06-22T20:31:00.912Z,92.70
2018-06-22T20:33:31.586Z,93.40
2018-06-22T20:36:07.383Z,92.00
2018-06-22T20:38:43.137Z,92.60
2018-06-22T20:41:18.932Z,92.90
2018-06-22T20:43:54.682Z,93.90
2018-06-22T20:46:30.389Z,94.20
2018-06-22T20:49:06.210Z,93.40
2018-06-22T20:51:41.200Z,93.90
2018-06-22T20:54:12.273Z,95.00
2018-06-22T20:56:43.122Z,95.80
2018-06-22T20:59:13.695Z,95.00
2018-06-22T21:01:44.434Z,95.30
2018-06-22T21:04:15.292Z,96.00
2018-06-22T21:06:45.993Z,95.90
2018-06-22T21:11:47.030Z,95.10
2018-06-22T21:14:17.718Z,95.50
2018-06-22T21:16:48.312Z,96.20
2018-06-22T21:19:19.147Z,94.80
2018-06-22T21:21:54.913Z,95.80
2018-06-22T21:24:25.540Z,96.70
2018-06-22T21:27:00.876Z,96.30
2018-06-22T21:29:36.704Z,96.10
2018-06-22T21:32:12.524Z,96.00
2018-06-22T21:34:48.758Z,96.70
2018-06-22T21:37:24.497Z,97.90
2018-06-22T21:39:55.277Z,97.20
2018-06-22T21:42:26.034Z,96.80
2018-06-22T21:44:56.714Z,96.50
2018-06-22T21:47:27.593Z,97.60
2018-06-22T21:49:58.256Z,98.70
2018-06-22T21:52:29.625Z,99.00
2018-06-22T21:55:00.807Z,97.20
2018-06-22T21:57:31.401Z,97.00
2018-06-22T22:00:01.973Z,97.60
2018-06-22T22:02:32.548Z,98.50
2018-06-22T22:05:03.305Z,97.80
2018-06-22T22:07:33.832Z,97.50
2018-06-22T22:10:05.125Z,97.30
2018-06-22T22:12:35.812Z,97.10
2018-06-22T22:15:06.623Z,96.90
2018-06-22T22:17:58.496Z,97.10
2018-06-22T22:20:29.129Z,96.60
2018-06-22T22:22:59.651Z,96.90
2018-06-22T22:25:30.267Z,95.90
2018-06-22T22:28:01.067Z,96.10
2018-06-22T22:30:32.199Z,96.10
2018-06-22T22:33:03.031Z,95.80
2018-06-22T22:35:34.078Z,96.10
2018-06-22T22:38:04.694Z,95.50
2018-06-22T22:40:35.411Z,96.00
2018-06-22T22:43:05.969Z,95.60
2018-06-22T22:45:36.786Z,95.60
2018-06-22T22:48:07.500Z,95.20
2018-06-22T22:50:38.236Z,95.30
2018-06-22T22:53:09.333Z,95.20
2018-06-22T22:55:40.085Z,95.50
2018-06-22T23:00:41.001Z,95.50
2018-06-22T23:03:12.179Z,95.60
2018-06-22T23:05:42.686Z,95.50
2018-06-22T23:08:13.191Z,95.50
2018-06-22T23:10:43.789Z,95.80
2018-06-22T23:13:14.564Z,95.50
2018-06-22T23:15:45.249Z,95.70
2018-06-22T23:18:16.224Z,95.80
2018-06-22T23:20:47.024Z,95.60
2018-06-22T23:23:33.579Z,95.60
2018-06-22T23:26:04.594Z,95.90
2018-06-22T23:28:35.329Z,95.90
2018-06-22T23:31:07.280Z,95.70
2018-06-22T23:33:37.980Z,95.90
2018-06-22T23:36:09.168Z,96.10
2018-06-22T23:38:40.284Z,96.40
2018-06-22T23:41:10.876Z,96.30
2018-06-22T23:43:41.634Z,96.30
2018-06-22T23:48:42.312Z,96.90
2018-06-22T23:51:12.930Z,96.90
2018-06-22T23:53:43.653Z,97.20
2018-06-22T23:56:14.316Z,97.20
2018-06-22T23:58:44.959Z,97.50
